Time,TemperatureF,DewpointF,PressureIn,WindDirection,WindDirectionDegrees,WindSpeedMPH,WindSpeedGustMPH,Humidity,HourlyPrecipIn,Conditions,Clouds,dailyrainin,SolarRadiationWatts/m^2,SoftwareType,DateUTC
2013-04-12 00:03:00,26.0,19.0,-100.00,ENE,65,7.0,14.0,73,0.00,,,0.00,0.000000,,2013-04-12 05:03:00,
2013-04-12 00:32:00,26.0,24.0,-100.00,ENE,65,7.0,14.0,91,0.00,,,0.00,0.000000,,2013-04-12 05:32:00,
2013-04-12 00:42:00,26.0,24.0,-100.00,ENE,65,7.0,14.0,91,0.00,,,0.00,0.000000,,2013-04-12 05:42:00,
2013-04-12 00:52:00,26.0,24.0,-100.00,ENE,65,7.0,14.0,91,0.00,,,0.00,0.000000,,2013-04-12 05:52:00,
2013-04-12 01:02:00,26.0,24.0,-100.00,ENE,65,7.0,14.0,91,0.00,,,0.00,0.000000,,2013-04-12 06:02:00,
2013-04-12 01:32:00,25.0,23.0,-100.00,ENE,62,7.0,15.0,92,0.00,,,0.00,0.000000,,2013-04-12 06:32:00,
2013-04-12 01:42:00,25.0,23.0,-100.00,ENE,62,7.0,15.0,92,0.00,,,0.00,0.000000,,2013-04-12 06:42:00,
2013-04-12 01:52:00,25.0,23.0,-100.00,ENE,62,7.0,15.0,92,0.00,,,0.00,0.000000,,2013-04-12 06:52:00,
2013-04-12 02:01:00,25.0,23.0,-100.00,ENE,62,7.0,15.0,92,0.00,,,0.00,0.000000,,2013-04-12 07:01:00,
2013-04-12 02:32:00,25.0,23.0,-100.00,NE,44,8.0,15.0,92,0.00,,,-99.99,0.000000,,2013-04-12 07:32:00,
2013-04-12 02:42:00,25.0,23.0,-100.00,NE,44,8.0,15.0,92,0.00,,,-99.99,0.000000,,2013-04-12 07:42:00,
2013-04-12 02:52:00,25.0,23.0,-100.00,NE,44,8.0,15.0,92,0.00,,,-99.99,0.000000,,2013-04-12 07:52:00,
2013-04-12 03:03:00,25.0,23.0,-100.00,NE,44,8.0,15.0,92,0.00,,,-99.99,0.000000,,2013-04-12 08:03:00,
2013-04-12 03:22:00,24.0,22.0,-100.00,NE,45,9.0,20.0,90,0.00,,,0.00,0.000000,,2013-04-12 08:22:00,
2013-04-12 03:32:00,24.0,22.0,-100.00,NE,45,9.0,20.0,90,0.00,,,0.00,0.000000,,2013-04-12 08:32:00,
2013-04-12 03:43:00,24.0,22.0,-100.00,NE,45,9.0,20.0,90,0.00,,,0.00,0.000000,,2013-04-12 08:43:00,
2013-04-12 03:52:00,24.0,22.0,-100.00,NE,45,9.0,20.0,90,0.00,,,0.00,0.000000,,2013-04-12 08:52:00,
2013-04-12 04:02:00,24.0,22.0,-100.00,NE,45,9.0,20.0,90,0.00,,,0.00,0.000000,,2013-04-12 09:02:00,
2013-04-12 04:22:00,23.0,21.0,-100.00,NE,45,8.0,17.0,91,0.00,,,0.00,0.000000,,2013-04-12 09:22:00,
2013-04-12 04:33:00,23.0,21.0,-100.00,NE,45,8.0,17.0,91,0.00,,,0.00,0.000000,,2013-04-12 09:33:00,
2013-04-12 04:44:00,23.0,21.0,-100.00,NE,45,8.0,17.0,91,0.00,,,0.00,0.000000,,2013-04-12 09:44:00,
2013-04-12 04:53:00,23.0,21.0,-100.00,NE,45,8.0,17.0,91,0.00,,,0.00,0.000000,,2013-04-12 09:53:00,
2013-04-12 05:03:00,23.0,21.0,-100.00,NE,45,8.0,17.0,91,0.00,,,0.00,0.000000,,2013-04-12 10:03:00,
2013-04-12 05:34:00,23.0,20.0,-100.00,NE,39,7.0,17.0,89,0.00,,,0.00,0.000000,,2013-04-12 10:34:00,
2013-04-12 05:42:00,23.0,20.0,-100.00,NE,39,7.0,17.0,89,0.00,,,0.00,0.000000,,2013-04-12 10:42:00,
2013-04-12 05:53:00,23.0,20.0,-100.00,NE,39,7.0,17.0,89,0.00,,,0.00,0.000000,,2013-04-12 10:53:00,
2013-04-12 06:02:00,23.0,20.0,-100.00,NE,39,7.0,17.0,89,0.00,,,0.00,0.000000,,2013-04-12 11:02:00,
2013-04-12 06:22:00,22.0,20.0,-100.00,NE,46,8.0,15.0,90,0.00,,,0.00,0.000000,,2013-04-12 11:22:00,
2013-04-12 06:33:00,22.0,20.0,-100.00,NE,46,8.0,15.0,90,0.00,,,0.00,0.000000,,2013-04-12 11:33:00,
2013-04-12 06:43:00,22.0,20.0,-100.00,NE,46,8.0,15.0,90,0.00,,,0.00,0.000000,,2013-04-12 11:43:00,
2013-04-12 06:52:00,22.0,20.0,-100.00,NE,46,8.0,15.0,90,0.00,,,0.00,0.000000,,2013-04-12 11:52:00,
2013-04-12 07:02:00,22.0,20.0,-100.00,NE,46,8.0,15.0,90,0.00,,,0.00,0.000000,,2013-04-12 12:02:00,
2013-04-12 07:22:00,22.0,20.0,-100.00,NE,49,6.0,14.0,90,0.00,,,0.00,2.000000,,2013-04-12 12:22:00,
2013-04-12 07:33:00,22.0,20.0,-100.00,NE,49,6.0,14.0,90,0.00,,,0.00,2.000000,,2013-04-12 12:33:00,
2013-04-12 07:42:00,22.0,20.0,-100.00,NE,49,6.0,14.0,90,0.00,,,0.00,2.000000,,2013-04-12 12:42:00,
2013-04-12 07:53:00,22.0,20.0,-100.00,NE,49,6.0,14.0,90,0.00,,,0.00,2.000000,,2013-04-12 12:53:00,
2013-04-12 08:03:00,22.0,20.0,-100.00,NE,49,6.0,14.0,90,0.00,,,0.00,2.000000,,2013-04-12 13:03:00,
2013-04-12 08:22:00,22.0,19.0,-100.00,NE,40,5.0,14.0,89,0.00,,,0.00,30.000000,,2013-04-12 13:22:00,
2013-04-12 08:32:00,22.0,19.0,-100.00,NE,40,5.0,14.0,89,0.00,,,0.00,30.000000,,2013-04-12 13:32:00,
2013-04-12 08:43:00,22.0,19.0,-100.00,NE,40,5.0,14.0,89,0.00,,,0.00,30.000000,,2013-04-12 13:43:00,
2013-04-12 08:53:00,22.0,19.0,-100.00,NE,40,5.0,14.0,89,0.00,,,0.00,30.000000,,2013-04-12 13:53:00,
2013-04-12 09:03:00,22.0,19.0,-100.00,NE,40,5.0,14.0,89,0.00,,,0.00,30.000000,,2013-04-12 14:03:00,
2013-04-12 09:23:00,24.0,20.0,-100.00,NE,46,7.0,14.0,86,0.00,,,0.00,133.000000,,2013-04-12 14:23:00,
2013-04-12 09:33:00,24.0,20.0,-100.00,NE,46,7.0,14.0,86,0.00,,,0.00,133.000000,,2013-04-12 14:33:00,
2013-04-12 09:43:00,24.0,20.0,-100.00,NE,46,7.0,14.0,86,0.00,,,0.00,133.000000,,2013-04-12 14:43:00,
2013-04-12 09:53:00,24.0,20.0,-100.00,NE,46,7.0,14.0,86,0.00,,,0.00,133.000000,,2013-04-12 14:53:00,
2013-04-12 10:02:00,24.0,20.0,-100.00,NE,46,7.0,14.0,86,0.00,,,0.00,133.000000,,2013-04-12 15:02:00,
2013-04-12 10:33:00,25.0,20.0,-100.00,NE,45,6.0,14.0,80,0.00,,,-99.99,262.000000,,2013-04-12 15:33:00,
2013-04-12 10:43:00,25.0,20.0,-100.00,NE,45,6.0,14.0,80,0.00,,,-99.99,262.000000,,2013-04-12 15:43:00,
2013-04-12 10:53:00,25.0,20.0,-100.00,NE,45,6.0,14.0,80,0.00,,,-99.99,262.000000,,2013-04-12 15:53:00,
2013-04-12 11:03:00,25.0,20.0,-100.00,NE,45,6.0,14.0,80,0.00,,,-99.99,262.000000,,2013-04-12 16:03:00,
2013-04-12 11:34:00,25.0,20.0,-100.00,NE,49,6.0,13.0,81,0.00,,,-99.99,265.000000,,2013-04-12 16:34:00,
2013-04-12 11:43:00,25.0,20.0,-100.00,NE,49,6.0,13.0,81,0.00,,,-99.99,265.000000,,2013-04-12 16:43:00,
2013-04-12 11:53:00,25.0,20.0,-100.00,NE,49,6.0,13.0,81,0.00,,,-99.99,265.000000,,2013-04-12 16:53:00,
2013-04-12 12:03:00,25.0,20.0,-100.00,NE,49,6.0,13.0,81,0.00,,,-99.99,265.000000,,2013-04-12 17:03:00,
2013-04-12 12:04:00,28.0,22.0,-100.00,NE,43,6.0,15.0,77,0.00,,,0.00,437.000000,,2013-04-12 17:04:00,
2013-04-12 12:34:00,28.0,22.0,-100.00,NE,43,6.0,15.0,77,0.00,,,0.00,437.000000,,2013-04-12 17:34:00,
2013-04-12 12:47:00,28.0,22.0,-100.00,NE,43,6.0,15.0,77,0.00,,,0.00,437.000000,,2013-04-12 17:47:00,
2013-04-12 13:04:00,32.0,23.0,-100.00,NE,45,5.0,15.0,68,0.10,,,0.10,649.000000,,2013-04-12 18:04:00,
2013-04-12 14:33:00,29.0,21.0,-100.00,NE,44,7.0,12.0,72,0.12,,,0.22,505.000000,,2013-04-12 19:33:00,
2013-04-12 14:43:00,29.0,21.0,-100.00,NE,44,7.0,12.0,72,0.12,,,0.22,505.000000,,2013-04-12 19:43:00,
2013-04-12 14:53:00,29.0,21.0,-100.00,NE,44,7.0,12.0,72,0.12,,,0.22,505.000000,,2013-04-12 19:53:00,
2013-04-12 15:02:00,29.0,21.0,-100.00,NE,44,7.0,12.0,72,0.12,,,0.22,505.000000,,2013-04-12 20:02:00,
2013-04-12 15:33:00,30.0,21.0,-100.00,NE,50,5.0,12.0,68,0.04,,,0.26,455.000000,,2013-04-12 20:33:00,
2013-04-12 15:43:00,30.0,21.0,-100.00,NE,50,5.0,12.0,68,0.04,,,0.26,455.000000,,2013-04-12 20:43:00,
2013-04-12 15:52:00,30.0,21.0,-100.00,NE,50,5.0,12.0,68,0.04,,,0.26,455.000000,,2013-04-12 20:52:00,
2013-04-12 16:02:00,30.0,21.0,-100.00,NE,50,5.0,12.0,68,0.04,,,0.26,455.000000,,2013-04-12 21:02:00,
2013-04-12 16:33:00,29.0,22.0,-100.00,NE,43,5.0,13.0,74,0.01,,,0.27,358.000000,,2013-04-12 21:33:00,
2013-04-12 16:43:00,29.0,22.0,-100.00,NE,43,5.0,13.0,74,0.01,,,0.27,358.000000,,2013-04-12 21:43:00,
2013-04-12 16:53:00,29.0,22.0,-100.00,NE,43,5.0,13.0,74,0.01,,,0.27,358.000000,,2013-04-12 21:53:00,
2013-04-12 17:02:00,29.0,22.0,-100.00,NE,43,5.0,13.0,74,0.01,,,0.27,358.000000,,2013-04-12 22:02:00,
2013-04-12 17:33:00,27.0,20.0,-100.00,NE,50,7.0,12.0,74,0.01,,,0.28,233.000000,,2013-04-12 22:33:00,
2013-04-12 17:43:00,27.0,20.0,-100.00,NE,50,7.0,12.0,74,0.01,,,0.28,233.000000,,2013-04-12 22:43:00,
2013-04-12 17:52:00,27.0,20.0,-100.00,NE,50,7.0,12.0,74,0.01,,,0.28,233.000000,,2013-04-12 22:52:00,
2013-04-12 18:03:00,27.0,20.0,-100.00,NE,50,7.0,12.0,74,0.01,,,0.28,233.000000,,2013-04-12 23:03:00,
2013-04-12 18:22:00,24.0,18.0,-100.00,ENE,62,6.0,16.0,78,0.00,,,0.28,127.000000,,2013-04-12 23:22:00,
2013-04-12 18:32:00,24.0,18.0,-100.00,ENE,62,6.0,16.0,78,0.00,,,0.28,127.000000,,2013-04-12 23:32:00,
2013-04-12 18:42:00,24.0,18.0,-100.00,ENE,62,6.0,16.0,78,0.00,,,0.28,127.000000,,2013-04-12 23:42:00,
2013-04-12 18:52:00,24.0,18.0,-100.00,ENE,62,6.0,16.0,78,0.00,,,0.28,127.000000,,2013-04-12 23:52:00,
2013-04-12 19:02:00,24.0,18.0,-100.00,ENE,62,6.0,16.0,78,0.00,,,0.28,127.000000,,2013-04-13 00:02:00,
2013-04-12 19:32:00,22.0,18.0,-100.00,NE,52,6.0,16.0,85,0.00,,,0.28,50.000000,,2013-04-13 00:32:00,
2013-04-12 19:42:00,22.0,18.0,-100.00,NE,52,6.0,16.0,85,0.00,,,0.28,50.000000,,2013-04-13 00:42:00,
2013-04-12 19:52:00,22.0,18.0,-100.00,NE,52,6.0,16.0,85,0.00,,,0.28,50.000000,,2013-04-13 00:52:00,
2013-04-12 20:02:00,22.0,18.0,-100.00,NE,52,6.0,16.0,85,0.00,,,0.28,50.000000,,2013-04-13 01:02:00,
2013-04-12 20:22:00,21.0,18.0,-100.00,NE,46,7.0,14.0,87,0.00,,,0.28,10.000000,,2013-04-13 01:22:00,
2013-04-12 20:33:00,21.0,18.0,-100.00,NE,46,7.0,14.0,87,0.00,,,0.28,10.000000,,2013-04-13 01:33:00,
2013-04-12 20:43:00,21.0,18.0,-100.00,NE,46,7.0,14.0,87,0.00,,,0.28,10.000000,,2013-04-13 01:43:00,
2013-04-12 20:52:00,21.0,18.0,-100.00,NE,46,7.0,14.0,87,0.00,,,0.28,10.000000,,2013-04-13 01:52:00,
2013-04-12 21:02:00,21.0,18.0,-100.00,NE,46,7.0,14.0,87,0.00,,,0.28,10.000000,,2013-04-13 02:02:00,
2013-04-12 21:23:00,21.0,18.0,-100.00,NE,44,4.0,12.0,89,0.00,,,0.28,0.000000,,2013-04-13 02:23:00,
2013-04-12 21:33:00,21.0,18.0,-100.00,NE,44,4.0,12.0,89,0.00,,,0.28,0.000000,,2013-04-13 02:33:00,
2013-04-12 21:43:00,21.0,18.0,-100.00,NE,44,4.0,12.0,89,0.00,,,0.28,0.000000,,2013-04-13 02:43:00,
2013-04-12 21:53:00,21.0,18.0,-100.00,NE,44,4.0,12.0,89,0.00,,,0.28,0.000000,,2013-04-13 02:53:00,
2013-04-12 22:02:00,21.0,18.0,-100.00,NE,44,4.0,12.0,89,0.00,,,0.28,0.000000,,2013-04-13 03:02:00,
2013-04-12 22:33:00,21.0,18.0,-100.00,NE,38,5.0,11.0,89,0.00,,,0.28,0.000000,,2013-04-13 03:33:00,
2013-04-12 22:43:00,21.0,18.0,-100.00,NE,38,5.0,11.0,89,0.00,,,0.28,0.000000,,2013-04-13 03:43:00,
2013-04-12 22:53:00,21.0,18.0,-100.00,NE,38,5.0,11.0,89,0.00,,,0.28,0.000000,,2013-04-13 03:53:00,
2013-04-12 23:03:00,21.0,18.0,-100.00,NE,38,5.0,11.0,89,0.00,,,0.28,0.000000,,2013-04-13 04:03:00,
2013-04-12 23:33:00,21.0,18.0,-100.00,NNE,17,3.0,9.0,89,0.00,,,0.28,0.000000,,2013-04-13 04:33:00,
2013-04-12 23:42:00,21.0,18.0,-100.00,NNE,17,3.0,9.0,89,0.00,,,0.28,0.000000,,2013-04-13 04:42:00,
2013-04-12 23:53:00,21.0,18.0,-100.00,NNE,17,3.0,9.0,89,0.00,,,0.28,0.000000,,2013-04-13 04:53:00,